Time;durP1;ratioP1;P1;durP2;ratioP2;P2;SDS_P1;SDS_P2;PMS_P1;PMS_P2;Temp;Humidity;BMP_temperature;BMP_pressure;BME280_temperature;BME280_humidity;BME280_pressure;Samples;Min_cycle;Max_cycle;Signal;HPM_P1;HPM_P2
2024/01/05 00:00:34;;;;;;;3.77;2.47;;;;;;;;;;6280490;28;20199;-65
2024/01/05 00:03:35;;;;;;;4.33;2.90;;;;;;;;;;6286152;28;20224;-64
2024/01/05 00:06:37;;;;;;;3.60;2.03;;;;;;;;;;6303968;28;20184;-64
2024/01/05 00:09:38;;;;;;;3.20;2.10;;;;;;;;;;6302513;28;20237;-64
2024/01/05 00:12:39;;;;;;;2.53;2.30;;;;;;;;;;6287926;28;20188;-64
2024/01/05 00:15:41;;;;;;;3.13;2.23;;;;;;;;;;6286078;28;20192;-64
2024/01/05 00:18:42;;;;;;;5.13;2.30;;;;;;;;;;6303073;28;20287;-64
2024/01/05 00:21:43;;;;;;;4.00;2.03;;;;;;;;;;6288424;28;20494;-64
2024/01/05 00:24:44;;;;;;;3.00;2.20;;;;;;;;;;6289849;28;20232;-64
2024/01/05 00:27:45;;;;;;;2.80;2.03;;;;;;;;;;6289747;28;20192;-64
2024/01/05 00:30:46;;;;;;;4.17;2.70;;;;;;;;;;6310454;28;20192;-64
2024/01/05 00:33:47;;;;;;;3.03;2.40;;;;;;;;;;6275606;28;20203;-64
2024/01/05 00:36:48;;;;;;;2.83;1.83;;;;;;;;;;6285628;28;20184;-65
2024/01/05 00:39:49;;;;;;;2.97;1.93;;;;;;;;;;6283042;28;20188;-65
2024/01/05 00:42:50;;;;;;;2.17;1.90;;;;;;;;;;6279010;28;20195;-65
2024/01/05 00:45:51;;;;;;;3.10;2.00;;;;;;;;;;6300400;28;20212;-65
2024/01/05 00:48:52;;;;;;;2.73;2.23;;;;;;;;;;6301443;28;20226;-65
2024/01/05 00:51:53;;;;;;;4.83;1.90;;;;;;;;;;6303335;28;20180;-65
2024/01/05 00:54:54;;;;;;;2.47;1.73;;;;;;;;;;6291912;28;20196;-65
2024/01/05 00:57:56;;;;;;;2.53;1.80;;;;;;;;;;6282427;28;20232;-65
2024/01/05 01:00:57;;;;;;;5.00;2.23;;;;;;;;;;6287380;28;20188;-65
2024/01/05 01:03:58;;;;;;;2.40;2.10;;;;;;;;;;6270249;28;20215;-65
2024/01/05 01:06:59;;;;;;;1.83;1.50;;;;;;;;;;6296682;28;20199;-65
2024/01/05 01:10:00;;;;;;;2.90;2.00;;;;;;;;;;6271951;28;20201;-64
2024/01/05 01:13:02;;;;;;;3.17;1.83;;;;;;;;;;6265457;28;20208;-64
2024/01/05 01:16:03;;;;;;;3.20;2.17;;;;;;;;;;6288098;28;20197;-64
2024/01/05 01:19:04;;;;;;;4.57;2.20;;;;;;;;;;6286924;28;20271;-64
2024/01/05 01:22:05;;;;;;;2.90;2.03;;;;;;;;;;6281250;28;20685;-64
2024/01/05 01:25:06;;;;;;;3.33;2.10;;;;;;;;;;6277828;28;20216;-64
2024/01/05 01:28:08;;;;;;;2.93;2.27;;;;;;;;;;6295723;28;20192;-64
2024/01/05 01:31:09;;;;;;;3.80;2.20;;;;;;;;;;6286116;28;20192;-64
2024/01/05 01:34:11;;;;;;;2.33;1.90;;;;;;;;;;6280639;28;20245;-64
2024/01/05 01:37:12;;;;;;;4.03;1.90;;;;;;;;;;6285062;28;20219;-64
2024/01/05 01:40:13;;;;;;;3.40;2.13;;;;;;;;;;6280425;28;20188;-64
2024/01/05 01:43:21;;;;;;;2.87;1.90;;;;;;;;;;6285461;28;20206;-64
2024/01/05 01:46:24;;;;;;;2.83;1.73;;;;;;;;;;6314450;28;20193;-64
2024/01/05 01:49:25;;;;;;;5.00;2.47;;;;;;;;;;6313786;28;20188;-64
2024/01/05 01:52:27;;;;;;;3.80;2.03;;;;;;;;;;6285243;28;20198;-64
2024/01/05 01:55:28;;;;;;;3.30;2.10;;;;;;;;;;6291051;28;20224;-64
2024/01/05 01:58:29;;;;;;;2.97;1.87;;;;;;;;;;6287515;28;20244;-64
2024/01/05 02:01:30;;;;;;;4.80;2.87;;;;;;;;;;6280553;28;20188;-64
2024/01/05 02:04:32;;;;;;;3.50;2.27;;;;;;;;;;6278060;28;20212;-64
2024/01/05 02:07:33;;;;;;;3.80;2.50;;;;;;;;;;6290099;28;20189;-64
2024/01/05 02:10:34;;;;;;;3.10;2.40;;;;;;;;;;6282196;28;20204;-64
2024/01/05 02:13:36;;;;;;;2.77;1.93;;;;;;;;;;6288024;28;20234;-64
2024/01/05 02:16:37;;;;;;;2.67;2.00;;;;;;;;;;6300959;28;20235;-64
2024/01/05 02:19:38;;;;;;;2.97;2.00;;;;;;;;;;6279654;28;20262;-64
2024/01/05 02:22:39;;;;;;;2.30;2.00;;;;;;;;;;6284696;28;20682;-64
2024/01/05 02:25:40;;;;;;;3.67;1.77;;;;;;;;;;6305095;28;20254;-64
2024/01/05 02:28:41;;;;;;;3.33;1.90;;;;;;;;;;6288360;28;20192;-64
2024/01/05 02:31:42;;;;;;;1.97;1.73;;;;;;;;;;6296893;28;20307;-64
2024/01/05 02:34:43;;;;;;;1.93;1.53;;;;;;;;;;6281848;28;20196;-64
2024/01/05 02:37:44;;;;;;;3.27;1.87;;;;;;;;;;6289599;28;20197;-64
2024/01/05 02:40:45;;;;;;;4.80;1.60;;;;;;;;;;6282713;28;20192;-64
2024/01/05 02:43:46;;;;;;;1.67;1.50;;;;;;;;;;6274200;28;20220;-64
2024/01/05 02:46:47;;;;;;;2.00;1.70;;;;;;;;;;6302557;28;20181;-64
2024/01/05 02:49:48;;;;;;;2.27;1.60;;;;;;;;;;6282385;28;20187;-64
2024/01/05 02:52:49;;;;;;;3.13;1.50;;;;;;;;;;6292576;28;20193;-64
2024/01/05 02:55:50;;;;;;;3.13;1.80;;;;;;;;;;6300190;28;20200;-64
2024/01/05 02:58:52;;;;;;;4.13;2.00;;;;;;;;;;6282054;28;20244;-64
2024/01/05 03:01:53;;;;;;;2.00;1.60;;;;;;;;;;6284476;28;20199;-64
2024/01/05 03:04:54;;;;;;;3.03;1.70;;;;;;;;;;6299810;28;20248;-64
2024/01/05 03:07:55;;;;;;;4.67;1.73;;;;;;;;;;6290917;28;20196;-64
2024/01/05 03:10:56;;;;;;;2.00;1.50;;;;;;;;;;6275780;28;20192;-64
2024/01/05 03:13:57;;;;;;;3.20;1.60;;;;;;;;;;6278605;28;20219;-64
2024/01/05 03:16:58;;;;;;;2.00;1.60;;;;;;;;;;6281376;28;20686;-64
2024/01/05 03:20:00;;;;;;;3.73;1.97;;;;;;;;;;6288460;28;20192;-64
2024/01/05 03:23:01;;;;;;;2.87;1.50;;;;;;;;;;6287233;28;20294;-64
2024/01/05 03:26:02;;;;;;;2.47;1.80;;;;;;;;;;6286678;28;20221;-64
2024/01/05 03:29:04;;;;;;;2.47;1.70;;;;;;;;;;6278639;28;20288;-64
2024/01/05 03:32:05;;;;;;;3.90;1.70;;;;;;;;;;6284120;28;20236;-64
2024/01/05 03:35:06;;;;;;;2.67;1.77;;;;;;;;;;6286604;28;20195;-64
2024/01/05 03:38:07;;;;;;;2.57;2.03;;;;;;;;;;6287537;28;20204;-64
2024/01/05 03:41:08;;;;;;;2.00;1.33;;;;;;;;;;6306800;28;20180;-64
2024/01/05 03:44:09;;;;;;;3.43;1.53;;;;;;;;;;6284999;28;20266;-64
2024/01/05 03:47:10;;;;;;;1.97;1.43;;;;;;;;;;6280259;28;20218;-64
2024/01/05 03:50:11;;;;;;;1.80;1.40;;;;;;;;;;6295982;28;20195;-64
2024/01/05 03:53:12;;;;;;;2.57;1.70;;;;;;;;;;6294056;28;20188;-64
2024/01/05 03:56:13;;;;;;;4.73;2.27;;;;;;;;;;6284233;28;20195;-64
2024/01/05 03:59:15;;;;;;;3.30;1.80;;;;;;;;;;6305542;28;20293;-64
2024/01/05 04:02:16;;;;;;;2.70;2.10;;;;;;;;;;6288570;28;20211;-64
2024/01/05 04:05:17;;;;;;;2.97;1.70;;;;;;;;;;6283215;28;20253;-64
2024/01/05 04:08:18;;;;;;;1.47;1.20;;;;;;;;;;6285500;28;20196;-64
2024/01/05 04:11:20;;;;;;;3.00;1.70;;;;;;;;;;6291514;28;20175;-64
2024/01/05 04:14:21;;;;;;;3.33;1.90;;;;;;;;;;6295931;28;20196;-64
2024/01/05 04:17:22;;;;;;;2.87;1.70;;;;;;;;;;6276455;28;20220;-64
2024/01/05 04:20:23;;;;;;;2.77;1.87;;;;;;;;;;6275571;28;20210;-64
2024/01/05 04:23:24;;;;;;;1.87;1.30;;;;;;;;;;6286166;28;20206;-64
2024/01/05 04:26:25;;;;;;;3.37;1.70;;;;;;;;;;6302271;28;20192;-64
2024/01/05 04:29:26;;;;;;;2.07;1.43;;;;;;;;;;6302676;28;20879;-64
2024/01/05 04:32:27;;;;;;;2.77;1.63;;;;;;;;;;6288276;28;20188;-64
2024/01/05 04:35:29;;;;;;;2.17;1.73;;;;;;;;;;6299922;28;20185;-64
2024/01/05 04:38:31;;;;;;;2.90;1.70;;;;;;;;;;6310902;28;20188;-64
2024/01/05 04:41:32;;;;;;;1.30;1.20;;;;;;;;;;6286612;28;20181;-64
2024/01/05 04:44:33;;;;;;;1.83;1.50;;;;;;;;;;6294083;28;20200;-64
2024/01/05 04:47:35;;;;;;;2.70;1.50;;;;;;;;;;6274950;28;20203;-64
2024/01/05 04:50:36;;;;;;;1.47;1.17;;;;;;;;;;6270579;28;20189;-64
2024/01/05 04:53:37;;;;;;;1.50;1.20;;;;;;;;;;6282987;28;20180;-64
2024/01/05 04:56:38;;;;;;;1.50;1.17;;;;;;;;;;6290555;28;20276;-64
2024/01/05 04:59:41;;;;;;;1.60;1.40;;;;;;;;;;6293129;28;20191;-64
2024/01/05 05:02:43;;;;;;;1.40;1.30;;;;;;;;;;6286392;28;20193;-64
2024/01/05 05:05:44;;;;;;;1.73;1.37;;;;;;;;;;6275903;28;20217;-64
2024/01/05 05:08:45;;;;;;;1.10;1.07;;;;;;;;;;6279547;28;20188;-64
2024/01/05 05:11:46;;;;;;;2.27;1.40;;;;;;;;;;6275068;28;20188;-64
2024/01/05 05:14:47;;;;;;;1.53;1.20;;;;;;;;;;6277255;28;20538;-64
2024/01/05 05:17:51;;;;;;;1.33;1.17;;;;;;;;;;6289116;28;20188;-64
2024/01/05 05:20:52;;;;;;;2.30;1.40;;;;;;;;;;6282239;28;20204;-64
2024/01/05 05:23:53;;;;;;;1.20;0.90;;;;;;;;;;6290777;28;20211;-64
2024/01/05 05:26:54;;;;;;;1.17;1.07;;;;;;;;;;6305857;28;20219;-64
2024/01/05 05:29:55;;;;;;;2.77;1.00;;;;;;;;;;6292149;28;20212;-64
2024/01/05 05:32:56;;;;;;;1.77;1.17;;;;;;;;;;6281388;28;20651;-64
2024/01/05 05:35:57;;;;;;;0.87;0.87;;;;;;;;;;6285401;28;20323;-64
2024/01/05 05:38:58;;;;;;;1.20;1.10;;;;;;;;;;6286933;28;20203;-64
2024/01/05 05:41:59;;;;;;;1.10;0.97;;;;;;;;;;6289751;28;20222;-64
2024/01/05 05:45:00;;;;;;;3.03;1.10;;;;;;;;;;6284504;28;20307;-65
2024/01/05 05:48:01;;;;;;;2.27;1.30;;;;;;;;;;6288232;28;20192;-65
2024/01/05 05:51:04;;;;;;;4.67;1.27;;;;;;;;;;6264236;28;20635;-65
2024/01/05 05:54:05;;;;;;;2.97;1.40;;;;;;;;;;6296690;28;20201;-65
2024/01/05 05:57:08;;;;;;;1.97;1.40;;;;;;;;;;6286912;28;20246;-65
2024/01/05 06:00:11;;;;;;;2.07;1.40;;;;;;;;;;6288326;28;20193;-65
2024/01/05 06:03:12;;;;;;;1.47;0.97;;;;;;;;;;6288508;28;20189;-65
2024/01/05 06:06:21;;;;;;;1.10;1.00;;;;;;;;;;6296198;28;20239;-65
2024/01/05 06:09:22;;;;;;;1.93;1.20;;;;;;;;;;6305568;28;20234;-65
2024/01/05 06:12:23;;;;;;;1.87;1.10;;;;;;;;;;6290411;28;20220;-64
2024/01/05 06:15:24;;;;;;;2.80;1.43;;;;;;;;;;6297165;28;20249;-64
2024/01/05 06:18:26;;;;;;;1.47;1.30;;;;;;;;;;6284733;28;20204;-64
2024/01/05 06:21:27;;;;;;;1.67;1.17;;;;;;;;;;6290808;28;20192;-64
2024/01/05 06:24:29;;;;;;;2.67;1.40;;;;;;;;;;6279148;28;20219;-64
2024/01/05 06:27:30;;;;;;;1.10;1.00;;;;;;;;;;6283300;28;20256;-65
2024/01/05 06:30:31;;;;;;;3.83;1.17;;;;;;;;;;6285798;28;20184;-65
2024/01/05 06:33:32;;;;;;;1.30;1.20;;;;;;;;;;6285547;28;20203;-65
2024/01/05 06:36:33;;;;;;;1.70;1.60;;;;;;;;;;6275644;28;20196;-65
2024/01/05 06:39:34;;;;;;;2.15;1.48;;;;;;;;;;6290127;28;20753;-64
2024/01/05 06:42:35;;;;;;;2.77;1.90;;;;;;;;;;6285577;28;20188;-65
2024/01/05 06:45:37;;;;;;;2.93;1.73;;;;;;;;;;6282562;28;20208;-66
2024/01/05 06:48:38;;;;;;;3.28;2.10;;;;;;;;;;6292551;28;20772;-65
2024/01/05 06:51:39;;;;;;;3.60;2.10;;;;;;;;;;6291939;28;20188;-64
2024/01/05 06:54:40;;;;;;;4.83;2.10;;;;;;;;;;6304905;28;20189;-64
2024/01/05 06:57:41;;;;;;;2.77;1.83;;;;;;;;;;6277518;28;20260;-63
2024/01/05 07:00:42;;;;;;;1.80;1.60;;;;;;;;;;6287695;28;20192;-64
2024/01/05 07:03:43;;;;;;;3.00;1.80;;;;;;;;;;6284339;28;20188;-63
2024/01/05 07:06:44;;;;;;;3.73;2.00;;;;;;;;;;6307709;28;20276;-63
2024/01/05 07:09:46;;;;;;;4.53;2.00;;;;;;;;;;6290913;28;20196;-63
2024/01/05 07:12:47;;;;;;;3.93;1.80;;;;;;;;;;6291159;28;20282;-64
2024/01/05 07:15:48;;;;;;;2.07;1.77;;;;;;;;;;6288858;28;20216;-64
2024/01/05 07:18:49;;;;;;;2.70;1.80;;;;;;;;;;6274424;28;20228;-65
2024/01/05 07:21:50;;;;;;;2.37;1.70;;;;;;;;;;6295079;28;20220;-65
2024/01/05 07:24:51;;;;;;;2.53;1.27;;;;;;;;;;6287255;28;20229;-64
2024/01/05 07:27:52;;;;;;;1.90;1.30;;;;;;;;;;6303701;28;20283;-64
2024/01/05 07:30:54;;;;;;;3.30;1.60;;;;;;;;;;6280973;28;20184;-64
2024/01/05 07:33:55;;;;;;;2.70;1.30;;;;;;;;;;6295818;28;20218;-64
2024/01/05 07:36:56;;;;;;;2.43;1.77;;;;;;;;;;6291410;28;20204;-64
2024/01/05 07:39:57;;;;;;;1.50;1.20;;;;;;;;;;6291325;28;20195;-64
2024/01/05 07:42:58;;;;;;;1.80;1.40;;;;;;;;;;6299925;28;20188;-63
2024/01/05 07:46:02;;;;;;;3.07;1.57;;;;;;;;;;6281544;28;20221;-63
2024/01/05 07:49:03;;;;;;;3.70;1.60;;;;;;;;;;6284169;28;20659;-63
2024/01/05 07:52:04;;;;;;;3.33;1.70;;;;;;;;;;6280863;28;20189;-63
2024/01/05 07:55:06;;;;;;;2.80;1.80;;;;;;;;;;6269616;28;20197;-63
2024/01/05 07:58:07;;;;;;;3.17;1.90;;;;;;;;;;6276705;28;20236;-63
2024/01/05 08:01:08;;;;;;;3.90;1.90;;;;;;;;;;6269387;28;20207;-63
2024/01/05 08:04:08;;;;;;;1.73;1.57;;;2.30;76.20;;;;;;6281985;28;20289;-63
2024/01/05 08:07:09;;;;;;;3.60;1.80;;;3.00;76.70;;;;;;6282119;28;20212;-69
2024/01/05 08:10:11;;;;;;;4.90;2.47;;;3.00;77.60;;;;;;6261520;28;20280;-62
2024/01/05 08:13:12;;;;;;;2.30;1.87;;;3.00;77.20;;;;;;6251705;28;20202;-64
2024/01/05 08:16:13;;;;;;;3.47;2.20;;;2.90;77.40;;;;;;6256018;28;20252;-63
2024/01/05 08:19:14;;;;;;;5.67;2.63;;;2.90;77.50;;;;;;6295443;28;20661;-64
2024/01/05 08:22:15;;;;;;;5.10;2.80;;;2.90;77.40;;;;;;6281597;28;20204;-63
2024/01/05 08:25:16;;;;;;;3.43;2.90;;;2.90;77.70;;;;;;6257248;28;20208;-63
2024/01/05 08:28:17;;;;;;;5.57;2.83;;;2.90;77.20;;;;;;6288427;28;20192;-63
2024/01/05 08:31:17;;;;;;;6.63;3.23;;;2.90;77.40;;;;;;6284848;28;20223;-63
2024/01/05 08:34:18;;;;;;;5.53;3.57;;;3.00;77.80;;;;;;6267679;28;20283;-63
2024/01/05 08:37:19;;;;;;;4.47;2.57;;;3.00;77.80;;;;;;6267525;28;20200;-63
2024/01/05 08:40:20;;;;;;;3.70;2.70;;;3.00;78.50;;;;;;6287934;28;20188;-63
2024/01/05 08:43:21;;;;;;;5.90;2.50;;;3.10;77.40;;;;;;6287264;28;20192;-63
2024/01/05 08:46:22;;;;;;;3.47;2.80;;;3.10;77.70;;;;;;6284858;28;20211;-64
2024/01/05 08:49:22;;;;;;;3.40;2.20;;;3.10;78.10;;;;;;6274398;28;20303;-64
2024/01/05 08:52:23;;;;;;;3.97;2.53;;;3.20;78.20;;;;;;6253534;28;20534;-64
2024/01/05 08:55:24;;;;;;;3.97;2.40;;;3.20;78.40;;;;;;6261291;28;20189;-64
2024/01/05 08:58:24;;;;;;;3.00;2.23;;;3.30;78.70;;;;;;6287482;28;20244;-64
2024/01/05 09:01:26;;;;;;;2.20;2.00;;;3.30;78.10;;;;;;6284797;28;20191;-63
2024/01/05 09:04:27;;;;;;;2.73;2.27;;;3.30;78.30;;;;;;6283801;28;20687;-64
2024/01/05 09:07:27;;;;;;;2.90;2.03;;;3.40;78.60;;;;;;6264485;28;20195;-63
2024/01/05 09:10:32;;;;;;;5.07;2.30;;;3.50;78.70;;;;;;6287555;28;20188;-64
2024/01/05 09:13:33;;;;;;;4.13;2.43;;;3.50;78.50;;;;;;6265632;28;20189;-66
2024/01/05 09:16:34;;;;;;;3.33;2.47;;;3.60;75.40;;;;;;6269260;28;20192;-64
2024/01/05 09:19:35;;;;;;;3.00;2.70;;;3.60;76.60;;;;;;6269979;28;20202;-65
2024/01/05 09:22:36;;;;;;;2.93;2.30;;;3.70;76.90;;;;;;6274183;28;20196;-65
2024/01/05 09:25:37;;;;;;;3.60;2.30;;;;;;;;;;6268535;28;20211;-65
2024/01/05 09:28:38;;;;;;;3.73;2.47;;;;;;;;;;6288843;28;20639;-64
2024/01/05 09:31:44;;;;;;;4.83;2.63;;;;;;;;;;6281500;28;20192;-65
2024/01/05 09:34:45;;;;;;;5.17;3.00;;;;;;;;;;6296630;28;20224;-68
2024/01/05 09:37:47;;;;;;;3.70;2.60;;;;;;;;;;6275198;28;20192;-66
2024/01/05 09:40:52;;;;;;;2.80;2.30;;;;;;;;;;6286644;28;20212;-66
2024/01/05 09:43:54;;;;;;;2.73;2.20;;;;;;;;;;6288016;28;20177;-70
2024/01/05 09:46:57;;;;;;;2.60;2.33;;;;;;;;;;6286686;28;20193;-69
2024/01/05 09:49:59;;;;;;;2.63;1.80;;;;;;;;;;6295445;28;20181;-69
2024/01/05 09:53:00;;;;;;;4.50;2.90;;;;;;;;;;6287423;28;20195;-69
2024/01/05 09:56:02;;;;;;;3.73;2.80;;;3.70;77.10;;;;;;6297686;28;20187;-69
2024/01/05 09:59:04;;;;;;;4.47;3.40;;;4.10;76.70;;;;;;6277947;28;20226;-68
2024/01/05 10:02:12;;;;;;;6.70;4.03;;;4.10;75.90;;;;;;6257463;28;20193;-66
2024/01/05 10:05:13;;;;;;;6.10;3.93;;;4.20;76.40;;;;;;6264338;28;20361;-70
2024/01/05 10:08:14;;;;;;;5.30;3.17;;;4.20;76.20;;;;;;6255266;28;20177;-66
2024/01/05 10:11:27;;;;;;;4.07;2.83;;;;;;;;;;6245683;28;20256;-66
2024/01/05 10:14:29;;;;;;;4.63;3.03;;;;;;;;;;6290979;28;20193;-66
2024/01/05 10:17:30;;;;;;;4.73;2.73;;;;;;;;;;6255157;28;20193;-66
2024/01/05 10:20:31;;;;;;;3.30;2.10;;;;;;;;;;6237398;28;20232;-66
2024/01/05 10:23:40;;;;;;;3.23;2.13;;;;;;;;;;6265186;28;20322;-66
2024/01/05 10:26:41;;;;;;;4.23;2.30;;;;;;;;;;6284595;28;20189;-66
2024/01/05 10:29:43;;;;;;;2.63;2.13;;;;;;;;;;6263901;28;20209;-66
2024/01/05 10:32:45;;;;;;;6.47;2.60;;;;;;;;;;6261021;28;20641;-66
2024/01/05 10:35:46;;;;;;;4.10;2.70;;;;;;;;;;6272551;28;20202;-66
2024/01/05 10:38:48;;;;;;;4.43;2.87;;;;;;;;;;6263693;28;20200;-66
2024/01/05 10:41:49;;;;;;;4.97;3.20;;;;;;;;;;6275846;28;20196;-66
2024/01/05 10:44:54;;;;;;;4.03;2.70;;;;;;;;;;6259245;28;20222;-66
2024/01/05 10:47:55;;;;;;;3.67;2.60;;;;;;;;;;6277564;28;20548;-65
2024/01/05 10:50:57;;;;;;;4.73;2.63;;;;;;;;;;6263224;28;20194;-65
2024/01/05 10:53:58;;;;;;;5.30;2.73;;;;;;;;;;6282741;28;20231;-65
2024/01/05 10:56:59;;;;;;;4.57;3.10;;;;;;;;;;6258270;28;20260;-66
2024/01/05 11:00:04;;;;;;;5.83;3.13;;;;;;;;;;6307492;28;20238;-66
2024/01/05 11:03:06;;;;;;;7.63;3.70;;;;;;;;;;6285979;28;20285;-66
2024/01/05 11:06:08;;;;;;;7.73;3.13;;;;;;;;;;6307562;28;20236;-66
2024/01/05 11:09:21;;;;;;;9.23;5.23;;;;;;;;;;6279139;28;20258;-66
2024/01/05 11:12:27;;;;;;;8.00;4.90;;;;;;;;;;6302222;28;20240;-68
2024/01/05 11:15:40;;;;;;;10.27;6.00;;;;;;;;;;6299124;28;20304;-64
2024/01/05 11:18:41;;;;;;;7.77;5.43;;;;;;;;;;6301862;28;20189;-65
2024/01/05 11:22:11;;;;;;;7.77;4.70;;;;;;;;;;6286563;28;20196;-65
2024/01/05 11:25:13;;;;;;;9.20;5.67;;;;;;;;;;6286347;28;20299;-64
2024/01/05 11:28:34;;;;;;;7.40;5.10;;;;;;;;;;6307307;28;20317;-64
2024/01/05 11:31:47;;;;;;;6.90;5.07;;;;;;;;;;6314842;28;20182;-65
2024/01/05 11:34:49;;;;;;;7.47;5.43;;;;;;;;;;6306273;28;20223;-65
2024/01/05 11:37:51;;;;;;;7.43;5.40;;;;;;;;;;6287366;28;20238;-65
2024/01/05 11:40:52;;;;;;;6.60;4.80;;;;;;;;;;6299026;28;20195;-65
2024/01/05 11:43:53;;;;;;;5.63;4.53;;;;;;;;;;6289364;28;20192;-65
2024/01/05 11:46:55;;;;;;;5.83;4.33;;;;;;;;;;6287318;28;20639;-65
2024/01/05 11:49:56;;;;;;;8.77;4.43;;;;;;;;;;6294811;28;20198;-64
2024/01/05 11:53:16;;;;;;;6.47;3.90;;;;;;;;;;6284916;28;20283;-65
2024/01/05 11:56:20;;;;;;;5.03;3.40;;;;;;;;;;6288560;28;20281;-64
2024/01/05 11:59:21;;;;;;;5.47;2.90;;;;;;;;;;6309217;28;20210;-65
2024/01/05 12:02:22;;;;;;;4.60;3.17;;;;;;;;;;6290641;28;20192;-65
2024/01/05 12:05:23;;;;;;;6.07;3.60;;;;;;;;;;6283425;28;20263;-65
2024/01/05 12:08:25;;;;;;;5.00;3.10;;;;;;;;;;6280644;28;20656;-65
2024/01/05 12:11:27;;;;;;;4.70;3.00;;;;;;;;;;6311688;28;20216;-66
2024/01/05 12:14:28;;;;;;;4.93;3.27;;;;;;;;;;6307199;28;20197;-65
2024/01/05 12:17:29;;;;;;;5.23;3.90;;;;;;;;;;6299542;28;20198;-65
2024/01/05 12:20:30;;;;;;;3.70;3.13;;;;;;;;;;6284918;28;20231;-64
2024/01/05 12:23:32;;;;;;;4.70;2.97;;;;;;;;;;6274194;28;20203;-65
2024/01/05 12:26:33;;;;;;;3.93;2.93;;;;;;;;;;6285123;28;20225;-64
2024/01/05 12:29:34;;;;;;;4.37;3.37;;;;;;;;;;6279145;28;20193;-64
2024/01/05 12:32:35;;;;;;;4.80;3.40;;;;;;;;;;6275459;28;20188;-64
2024/01/05 12:35:36;;;;;;;7.93;4.23;;;;;;;;;;6279429;28;20203;-64
2024/01/05 12:38:37;;;;;;;7.73;3.20;;;;;;;;;;6278166;28;20249;-64
2024/01/05 12:41:41;;;;;;;6.13;3.97;;;;;;;;;;6294478;28;20250;-64
2024/01/05 12:44:42;;;;;;;5.27;3.50;;;;;;;;;;6311913;28;20205;-64
2024/01/05 12:47:43;;;;;;;5.37;3.17;;;;;;;;;;6284015;28;20188;-65
2024/01/05 12:50:44;;;;;;;6.40;4.77;;;;;;;;;;6282633;28;20200;-64
2024/01/05 12:54:06;;;;;;;9.00;5.57;;;;;;;;;;6296902;28;20189;-64
2024/01/05 12:57:08;;;;;;;7.20;5.23;;;;;;;;;;6298323;28;20244;-64
2024/01/05 13:00:10;;;;;;;7.10;4.73;;;;;;;;;;6285549;28;20201;-65
2024/01/05 13:03:15;;;;;;;7.40;5.03;;;;;;;;;;6289837;28;20196;-64
2024/01/05 13:06:16;;;;;;;7.13;4.83;;;;;;;;;;6279009;28;20248;-64
2024/01/05 13:09:17;;;;;;;4.67;3.20;;;;;;;;;;6282129;28;20198;-64
2024/01/05 13:12:18;;;;;;;5.23;3.23;;;;;;;;;;6287497;28;20195;-64
2024/01/05 13:15:22;;;;;;;7.00;3.87;;;;;;;;;;6280842;28;20193;-64
2024/01/05 13:18:23;;;;;;;5.80;3.97;;;;;;;;;;6299489;28;20192;-64
2024/01/05 13:21:24;;;;;;;4.10;3.10;;;;;;;;;;6284328;28;20241;-65
2024/01/05 13:24:25;;;;;;;5.57;2.80;;;;;;;;;;6281037;28;20215;-64
2024/01/05 13:27:26;;;;;;;7.10;3.97;;;;;;;;;;6288068;28;20237;-64
2024/01/05 13:30:27;;;;;;;5.90;3.60;;;;;;;;;;6295859;28;20220;-64
2024/01/05 13:33:29;;;;;;;5.87;3.80;;;;;;;;;;6285294;28;20286;-65
2024/01/05 13:36:30;;;;;;;10.13;4.70;;;;;;;;;;6273775;28;20285;-65
2024/01/05 13:39:35;;;;;;;9.40;4.97;;;;;;;;;;6282792;28;20245;-65
2024/01/05 13:42:36;;;;;;;6.80;4.10;;;;;;;;;;6301587;28;20260;-65
2024/01/05 13:45:37;;;;;;;6.23;3.93;;;;;;;;;;6301016;28;20215;-65
2024/01/05 13:48:38;;;;;;;5.87;4.40;;;;;;;;;;6288424;28;20188;-64
2024/01/05 13:51:39;;;;;;;5.60;3.30;;;;;;;;;;6282396;28;20208;-64
2024/01/05 13:54:40;;;;;;;5.50;3.80;;;;;;;;;;6268351;28;20195;-64
2024/01/05 13:57:41;;;;;;;5.77;4.13;;;;;;;;;;6276430;28;20255;-64
2024/01/05 14:00:42;;;;;;;5.70;4.00;;;;;;;;;;6286647;28;20188;-65
2024/01/05 14:03:43;;;;;;;8.17;4.20;;;;;;;;;;6281981;28;20192;-65
2024/01/05 14:06:45;;;;;;;6.33;4.10;;;;;;;;;;6293703;28;20306;-64
2024/01/05 14:09:45;;;;;;;8.10;4.73;;;4.30;75.30;;;;;;6271553;28;20283;-65
2024/01/05 14:12:46;;;;;;;8.27;4.50;;;6.90;69.50;;;;;;6292336;28;20185;-64
2024/01/05 14:15:46;;;;;;;7.17;4.07;;;6.80;69.40;;;;;;6275993;28;20276;-64
2024/01/05 14:18:49;;;;;;;7.30;4.17;;;6.80;69.50;;;;;;6267327;28;20245;-64
2024/01/05 14:21:50;;;;;;;9.10;4.47;;;6.80;70.50;;;;;;6268837;28;20189;-64
2024/01/05 14:24:52;;;;;;;7.40;4.80;;;6.80;70.40;;;;;;6293182;28;20212;-64
2024/01/05 14:27:53;;;;;;;8.07;5.23;;;6.90;70.50;;;;;;6267413;28;20272;-64
2024/01/05 14:30:53;;;;;;;9.50;5.13;;;6.90;70.00;;;;;;6265110;28;20189;-65
2024/01/05 14:33:55;;;;;;;8.07;5.67;;;7.00;70.20;;;;;;6271336;28;20195;-65
2024/01/05 14:36:56;;;;;;;12.80;7.80;;;7.00;70.10;;;;;;6309068;28;20189;-65
2024/01/05 14:39:57;;;;;;;9.90;6.80;;;7.00;70.80;;;;;;6284741;28;20409;-65
2024/01/05 14:42:57;;;;;;;9.53;6.43;;;7.00;70.20;;;;;;6265741;28;20196;-65
2024/01/05 14:45:58;;;;;;;11.43;6.30;;;7.00;70.50;;;;;;6308067;28;20249;-65
2024/01/05 14:48:59;;;;;;;11.63;6.90;;;6.90;70.60;;;;;;6281017;28;20272;-65
2024/01/05 14:51:59;;;;;;;12.30;7.10;;;6.90;70.10;;;;;;6287614;28;20192;-65
2024/01/05 14:55:01;;;;;;;10.17;7.00;;;6.90;70.40;;;;;;6271691;28;20196;-65
2024/01/05 14:58:03;;;;;;;9.50;6.50;;;6.80;71.00;;;;;;6301440;28;20232;-65
2024/01/05 15:01:04;;;;;;;13.70;8.40;;;6.70;70.40;;;;;;6266647;28;20288;-65
2024/01/05 15:04:05;;;;;;;14.80;7.70;;;6.70;70.60;;;;;;6266030;28;20195;-65
2024/01/05 15:07:05;;;;;;;13.37;6.90;;;6.60;70.70;;;;;;6257365;28;20276;-65
2024/01/05 15:10:07;;;;;;;11.27;6.43;;;6.60;70.20;;;;;;6262092;28;20537;-65
2024/01/05 15:13:08;;;;;;;9.73;6.53;;;6.60;70.40;;;;;;6269630;28;20184;-65
2024/01/05 15:16:08;;;;;;;12.80;6.27;;;6.50;70.90;;;;;;6274044;28;20191;-65
2024/01/05 15:19:10;;;;;;;13.60;6.90;;;6.40;72.00;;;;;;6261726;28;20194;-65
2024/01/05 15:22:11;;;;;;;13.03;7.80;;;6.30;72.90;;;;;;6274231;28;20189;-65
2024/01/05 15:25:13;;;;;;;11.03;7.30;;;6.20;73.40;;;;;;6252970;28;20691;-65
2024/01/05 15:28:14;;;;;;;9.07;6.60;;;6.20;74.00;;;;;;6268266;28;20186;-65
2024/01/05 15:31:19;;;;;;;8.30;5.97;;;6.10;74.00;;;;;;6307170;28;20183;-65
2024/01/05 15:34:20;;;;;;;8.33;5.50;;;6.10;73.90;;;;;;6282500;28;20193;-65
2024/01/05 15:37:20;;;;;;;9.03;6.10;;;6.00;73.80;;;;;;6298863;28;20185;-65
2024/01/05 15:40:21;;;;;;;9.20;5.63;;;5.90;74.40;;;;;;6255537;28;20184;-65
2024/01/05 15:43:22;;;;;;;7.60;4.80;;;5.90;74.80;;;;;;6255565;28;20185;-64
2024/01/05 15:46:23;;;;;;;12.63;8.03;;;5.80;75.20;;;;;;6275152;28;20212;-64
2024/01/05 15:49:24;;;;;;;15.17;8.17;;;5.80;74.60;;;;;;6288417;28;20242;-64
2024/01/05 15:52:25;;;;;;;10.93;7.47;;;5.80;74.90;;;;;;6268549;28;20200;-64
2024/01/05 15:55:26;;;;;;;11.57;6.80;;;5.70;74.70;;;;;;6268886;28;20207;-64
2024/01/05 15:58:27;;;;;;;9.63;6.53;;;5.70;75.30;;;;;;6272063;28;20232;-64
2024/01/05 16:01:28;;;;;;;12.37;7.00;;;5.70;75.10;;;;;;6259956;28;20204;-64
2024/01/05 16:04:28;;;;;;;10.43;7.00;;;5.70;75.10;;;;;;6292246;28;20226;-64
2024/01/05 16:07:31;;;;;;;14.07;7.37;;;5.60;75.30;;;;;;6283351;28;20184;-64
2024/01/05 16:10:31;;;;;;;9.17;6.40;;;5.50;75.10;;;;;;6268140;28;20737;-64
2024/01/05 16:13:32;;;;;;;10.27;6.20;;;5.50;75.60;;;;;;6268309;28;20192;-64
2024/01/05 16:16:34;;;;;;;12.10;7.17;;;5.50;75.90;;;;;;6264560;28;20201;-64
2024/01/05 16:19:35;;;;;;;12.33;7.53;;;5.50;75.80;;;;;;6300267;28;20184;-65
2024/01/05 16:22:35;;;;;;;11.17;7.63;;;5.50;76.20;;;;;;6264179;28;20193;-65
2024/01/05 16:25:36;;;;;;;14.30;7.40;;;5.50;76.40;;;;;;6284528;28;20208;-65
2024/01/05 16:28:37;;;;;;;14.43;7.00;;;5.40;76.30;;;;;;6287766;28;20193;-65
2024/01/05 16:31:37;;;;;;;9.30;7.73;;;5.50;76.50;;;;;;6294849;28;20196;-65
2024/01/05 16:34:38;;;;;;;14.47;7.37;;;5.40;76.70;;;;;;6269485;28;20198;-65
2024/01/05 16:37:39;;;;;;;9.73;6.77;;;5.40;76.40;;;;;;6266554;28;20203;-65
2024/01/05 16:40:40;;;;;;;13.03;7.20;;;5.30;76.80;;;;;;6283501;28;20261;-65
2024/01/05 16:43:40;;;;;;;10.37;7.47;;;5.30;76.50;;;;;;6282024;28;20216;-65
2024/01/05 16:46:41;;;;;;;8.17;6.60;;;5.30;76.60;;;;;;6299019;28;20208;-65
2024/01/05 16:49:42;;;;;;;10.00;5.07;;;5.30;76.80;;;;;;6263984;28;20189;-65
2024/01/05 16:52:43;;;;;;;8.20;5.10;;;5.30;76.90;;;;;;6287112;28;20212;-66
2024/01/05 16:55:44;;;;;;;6.63;5.00;;;5.10;77.60;;;;;;6278925;28;20196;-67
2024/01/05 16:58:44;;;;;;;9.47;6.10;;;5.10;77.90;;;;;;6302407;28;20315;-67
2024/01/05 17:01:45;;;;;;;10.20;6.70;;;5.10;77.70;;;;;;6261684;28;20196;-67
2024/01/05 17:04:49;;;;;;;9.70;6.13;;;5.10;77.70;;;;;;6266078;28;20204;-67
2024/01/05 17:07:50;;;;;;;9.73;6.47;;;5.10;77.90;;;;;;6285774;28;20185;-67
2024/01/05 17:10:50;;;;;;;11.37;7.63;;;5.10;78.30;;;;;;6255731;28;20193;-67
2024/01/05 17:13:51;;;;;;;11.47;6.97;;;5.00;78.30;;;;;;6271645;28;20279;-66
2024/01/05 17:16:52;;;;;;;9.13;6.13;;;5.00;78.30;;;;;;6293837;28;20228;-69
2024/01/05 17:19:52;;;;;;;8.13;5.23;;;5.10;78.10;;;;;;6290782;28;20279;-66
2024/01/05 17:22:53;;;;;;;11.50;6.90;;;5.10;77.90;;;;;;6284569;28;20775;-66
2024/01/05 17:25:54;;;;;;;10.70;6.60;;;5.10;78.20;;;;;;6269867;28;20265;-66